WAT210 KMSL-KBNA
Flight info
| Callsign | WAT210 |
|---|---|
| Flight time | 0h 29m |
| Altitude | 19000 |
| Route | CHSNE CHSNE3 |
| Aircraft | CL60/M-SADE3FGHIJ3J4J7P2RWXY/HB1D1 |
Departure
| Time | 2026-04-22 17:52 |
|---|---|
| Airport | Northwest Alabama Regional Airport (KMSL) |
Arrival
| Time | 2026-04-22 18:22 |
|---|---|
| Airport | Nashville International Airport (KBNA) |
| Time | Latitude | Longitude | Altitude | Speed | Heading |
|---|---|---|---|---|---|
| 2026-04-22 17:42 | 34.74691 | -87.61813 | 542 ft | 0 kts | 90° |
| 2026-04-22 17:49 | 34.74682 | -87.61802 | 542 ft | 4 kts | 161° |
| 2026-04-22 17:49 | 34.74639 | -87.61795 | 542 ft | 8 kts | 181° |
| 2026-04-22 17:50 | 34.74566 | -87.61795 | 541 ft | 8 kts | 150° |
| 2026-04-22 17:50 | 34.74572 | -87.61726 | 542 ft | 11 kts | 23° |
| 2026-04-22 17:50 | 34.74668 | -87.61717 | 542 ft | 16 kts | 0° |
| 2026-04-22 17:50 | 34.74797 | -87.61713 | 542 ft | 20 kts | 2° |
| 2026-04-22 17:51 | 34.74814 | -87.61712 | 542 ft | 0 kts | 1° |
| 2026-04-22 17:51 | 34.74838 | -87.61710 | 542 ft | 8 kts | 12° |
| 2026-04-22 17:51 | 34.74888 | -87.61665 | 542 ft | 9 kts | 90° |
| 2026-04-22 17:52 | 34.74852 | -87.61563 | 542 ft | 32 kts | 115° |
| 2026-04-22 17:52 | 34.74577 | -87.60821 | 550 ft | 150 kts | 115° |
| 2026-04-22 17:52 | 34.74093 | -87.59516 | 1338 ft | 181 kts | 116° |
| 2026-04-22 17:52 | 34.73519 | -87.58008 | 2187 ft | 216 kts | 118° |
| 2026-04-22 17:53 | 34.72742 | -87.56408 | 3509 ft | 230 kts | 129° |
| 2026-04-22 17:53 | 34.71777 | -87.54956 | 5138 ft | 231 kts | 124° |
| 2026-04-22 17:53 | 34.71279 | -87.53021 | 6257 ft | 261 kts | 94° |
| 2026-04-22 17:53 | 34.71566 | -87.50794 | 7539 ft | 280 kts | 70° |
| 2026-04-22 17:54 | 34.72644 | -87.48842 | 9021 ft | 289 kts | 43° |
| 2026-04-22 17:54 | 34.74427 | -87.47702 | 10490 ft | 298 kts | 11° |
| 2026-04-22 17:54 | 34.76486 | -87.47572 | 11910 ft | 304 kts | 359° |
| 2026-04-22 17:54 | 34.78594 | -87.47593 | 13366 ft | 308 kts | 359° |
| 2026-04-22 17:55 | 34.80757 | -87.47604 | 14798 ft | 310 kts | 359° |
| 2026-04-22 17:55 | 34.82901 | -87.47612 | 16263 ft | 308 kts | 359° |
| 2026-04-22 17:55 | 34.85006 | -87.47619 | 17561 ft | 309 kts | 359° |
| 2026-04-22 17:55 | 34.87206 | -87.47625 | 18504 ft | 320 kts | 359° |
| 2026-04-22 17:56 | 34.89468 | -87.47629 | 18998 ft | 325 kts | 359° |
| 2026-04-22 17:56 | 34.91759 | -87.47634 | 19200 ft | 324 kts | 359° |
| 2026-04-22 17:56 | 34.94016 | -87.47637 | 19220 ft | 323 kts | 359° |
| 2026-04-22 17:56 | 34.96332 | -87.47639 | 19214 ft | 344 kts | 359° |
| 2026-04-22 17:57 | 34.98882 | -87.47642 | 19204 ft | 374 kts | 359° |
| 2026-04-22 17:57 | 35.01557 | -87.47643 | 19203 ft | 385 kts | 359° |
| 2026-04-22 17:57 | 35.04277 | -87.47644 | 19211 ft | 386 kts | 359° |
| 2026-04-22 17:57 | 35.06971 | -87.47645 | 19213 ft | 385 kts | 359° |
| 2026-04-22 17:58 | 35.09686 | -87.47644 | 19211 ft | 384 kts | 359° |
| 2026-04-22 17:58 | 35.12387 | -87.47643 | 19210 ft | 384 kts | 359° |
| 2026-04-22 17:58 | 35.15077 | -87.47642 | 19210 ft | 383 kts | 359° |
| 2026-04-22 17:58 | 35.17745 | -87.47642 | 19214 ft | 383 kts | 359° |
| 2026-04-22 17:59 | 35.20438 | -87.47641 | 19214 ft | 383 kts | 359° |
| 2026-04-22 17:59 | 35.23128 | -87.47640 | 19213 ft | 383 kts | 359° |
| 2026-04-22 17:59 | 35.25815 | -87.47639 | 19211 ft | 383 kts | 359° |
| 2026-04-22 17:59 | 35.28493 | -87.47639 | 19208 ft | 384 kts | 359° |
| 2026-04-22 18:00 | 35.30289 | -87.47637 | 19209 ft | 384 kts | 359° |
| 2026-04-22 18:00 | 35.33913 | -87.47635 | 19209 ft | 384 kts | 359° |
| 2026-04-22 18:00 | 35.36612 | -87.47632 | 19208 ft | 384 kts | 359° |
| 2026-04-22 18:00 | 35.39316 | -87.47629 | 19208 ft | 384 kts | 359° |
| 2026-04-22 18:01 | 35.42006 | -87.47625 | 19206 ft | 384 kts | 359° |
| 2026-04-22 18:01 | 35.44687 | -87.47617 | 19206 ft | 383 kts | 359° |
| 2026-04-22 18:01 | 35.47364 | -87.47611 | 19208 ft | 383 kts | 359° |
| 2026-04-22 18:01 | 35.50050 | -87.47604 | 19205 ft | 383 kts | 359° |
| 2026-04-22 18:02 | 35.52760 | -87.47598 | 19203 ft | 383 kts | 359° |
| 2026-04-22 18:02 | 35.55434 | -87.47592 | 19203 ft | 384 kts | 359° |
| 2026-04-22 18:02 | 35.58158 | -87.47586 | 19201 ft | 384 kts | 359° |
| 2026-04-22 18:02 | 35.60820 | -87.47581 | 19197 ft | 384 kts | 359° |
| 2026-04-22 18:03 | 35.63524 | -87.47576 | 19196 ft | 384 kts | 359° |
| 2026-04-22 18:03 | 35.66227 | -87.47571 | 19195 ft | 384 kts | 359° |
| 2026-04-22 18:03 | 35.68940 | -87.47567 | 19194 ft | 385 kts | 359° |
| 2026-04-22 18:03 | 35.71652 | -87.47565 | 19194 ft | 385 kts | 359° |
| 2026-04-22 18:04 | 35.74329 | -87.47562 | 19193 ft | 385 kts | 359° |
| 2026-04-22 18:04 | 35.77034 | -87.47495 | 19196 ft | 385 kts | 4° |
| 2026-04-22 18:04 | 35.79680 | -87.46752 | 19203 ft | 387 kts | 19° |
| 2026-04-22 18:04 | 35.82068 | -87.45147 | 19199 ft | 390 kts | 35° |
| 2026-04-22 18:05 | 35.84012 | -87.42738 | 19203 ft | 393 kts | 51° |
| 2026-04-22 18:05 | 35.85341 | -87.39742 | 19190 ft | 396 kts | 64° |
| 2026-04-22 18:05 | 35.86423 | -87.36656 | 19178 ft | 396 kts | 64° |
| 2026-04-22 18:05 | 35.87523 | -87.33533 | 18843 ft | 391 kts | 65° |
| 2026-04-22 18:06 | 35.88597 | -87.30478 | 18368 ft | 379 kts | 64° |
| 2026-04-22 18:06 | 35.89642 | -87.27501 | 17889 ft | 369 kts | 65° |
| 2026-04-22 18:06 | 35.90648 | -87.24634 | 17417 ft | 359 kts | 65° |
| 2026-04-22 18:06 | 35.91640 | -87.21800 | 16848 ft | 354 kts | 65° |
| 2026-04-22 18:07 | 35.92607 | -87.19041 | 16325 ft | 348 kts | 65° |
| 2026-04-22 18:07 | 35.93568 | -87.16293 | 15835 ft | 342 kts | 65° |
| 2026-04-22 18:07 | 35.94492 | -87.13649 | 15375 ft | 336 kts | 65° |
| 2026-04-22 18:07 | 35.95414 | -87.11008 | 14919 ft | 331 kts | 65° |
| 2026-04-22 18:08 | 35.96325 | -87.08395 | 14481 ft | 326 kts | 65° |
| 2026-04-22 18:08 | 35.97226 | -87.05809 | 14050 ft | 321 kts | 65° |
| 2026-04-22 18:08 | 35.98101 | -87.03297 | 13627 ft | 317 kts | 65° |
| 2026-04-22 18:08 | 35.98966 | -87.00808 | 13211 ft | 313 kts | 66° |
| 2026-04-22 18:09 | 35.99822 | -86.98338 | 12802 ft | 309 kts | 66° |
| 2026-04-22 18:09 | 36.00666 | -86.95903 | 12391 ft | 307 kts | 66° |
| 2026-04-22 18:09 | 36.01508 | -86.93478 | 11980 ft | 304 kts | 66° |
| 2026-04-22 18:09 | 36.02336 | -86.91089 | 11586 ft | 302 kts | 66° |
| 2026-04-22 18:10 | 36.03164 | -86.88703 | 11179 ft | 302 kts | 66° |
| 2026-04-22 18:10 | 36.03999 | -86.86302 | 10775 ft | 302 kts | 66° |
| 2026-04-22 18:10 | 36.04892 | -86.83949 | 10368 ft | 301 kts | 58° |
| 2026-04-22 18:10 | 36.06300 | -86.82004 | 9884 ft | 301 kts | 36° |
| 2026-04-22 18:11 | 36.08146 | -86.80856 | 9484 ft | 296 kts | 17° |
| 2026-04-22 18:11 | 36.10115 | -86.80097 | 9055 ft | 293 kts | 15° |
| 2026-04-22 18:11 | 36.12059 | -86.79352 | 8692 ft | 289 kts | 15° |
| 2026-04-22 18:11 | 36.13990 | -86.78603 | 8299 ft | 286 kts | 15° |
| 2026-04-22 18:12 | 36.15908 | -86.77856 | 7915 ft | 282 kts | 15° |
| 2026-04-22 18:12 | 36.17766 | -86.77131 | 7553 ft | 279 kts | 15° |
| 2026-04-22 18:12 | 36.19018 | -86.76643 | 7329 ft | 276 kts | 15° |
| 2026-04-22 18:12 | 36.21425 | -86.75701 | 6937 ft | 268 kts | 15° |
| 2026-04-22 18:13 | 36.23211 | -86.75002 | 6619 ft | 262 kts | 14° |
| 2026-04-22 18:13 | 36.24897 | -86.74339 | 6303 ft | 247 kts | 14° |
| 2026-04-22 18:13 | 36.26498 | -86.73708 | 6033 ft | 232 kts | 13° |
| 2026-04-22 18:13 | 36.28001 | -86.73116 | 5755 ft | 220 kts | 13° |
| 2026-04-22 18:14 | 36.29423 | -86.72449 | 5497 ft | 212 kts | 24° |
| 2026-04-22 18:14 | 36.30590 | -86.71397 | 5250 ft | 204 kts | 42° |
| 2026-04-22 18:14 | 36.31401 | -86.70058 | 4989 ft | 178 kts | 60° |
| 2026-04-22 18:14 | 36.31841 | -86.68674 | 4832 ft | 174 kts | 75° |
| 2026-04-22 18:15 | 36.31998 | -86.67193 | 4590 ft | 168 kts | 91° |
| 2026-04-22 18:15 | 36.31878 | -86.65761 | 4405 ft | 165 kts | 105° |
| 2026-04-22 18:15 | 36.31516 | -86.64425 | 4204 ft | 157 kts | 119° |
| 2026-04-22 18:15 | 36.30986 | -86.63335 | 4035 ft | 143 kts | 132° |
| 2026-04-22 18:16 | 36.30320 | -86.62434 | 3850 ft | 135 kts | 143° |
| 2026-04-22 18:16 | 36.29581 | -86.61749 | 3689 ft | 130 kts | 155° |
| 2026-04-22 18:16 | 36.28773 | -86.61249 | 3534 ft | 126 kts | 165° |
| 2026-04-22 18:16 | 36.27949 | -86.60947 | 3385 ft | 123 kts | 174° |
| 2026-04-22 18:17 | 36.27096 | -86.60821 | 3243 ft | 120 kts | 184° |
| 2026-04-22 18:17 | 36.26265 | -86.60871 | 3097 ft | 118 kts | 193° |
| 2026-04-22 18:17 | 36.25456 | -86.61090 | 2958 ft | 116 kts | 202° |
| 2026-04-22 18:17 | 36.24682 | -86.61396 | 2814 ft | 117 kts | 203° |
| 2026-04-22 18:18 | 36.23900 | -86.61704 | 2663 ft | 116 kts | 203° |
| 2026-04-22 18:18 | 36.23119 | -86.62017 | 2495 ft | 116 kts | 202° |
| 2026-04-22 18:18 | 36.22345 | -86.62327 | 2355 ft | 117 kts | 203° |
| 2026-04-22 18:18 | 36.21574 | -86.62637 | 2198 ft | 115 kts | 202° |
| 2026-04-22 18:19 | 36.20801 | -86.62946 | 2028 ft | 115 kts | 203° |
| 2026-04-22 18:19 | 36.20026 | -86.63257 | 1884 ft | 115 kts | 203° |
| 2026-04-22 18:19 | 36.19268 | -86.63562 | 1734 ft | 114 kts | 204° |
| 2026-04-22 18:19 | 36.18494 | -86.63872 | 1584 ft | 114 kts | 203° |
| 2026-04-22 18:20 | 36.17720 | -86.64183 | 1407 ft | 116 kts | 204° |
| 2026-04-22 18:20 | 36.16951 | -86.64489 | 1299 ft | 116 kts | 201° |
| 2026-04-22 18:20 | 36.16174 | -86.64781 | 1143 ft | 117 kts | 202° |
| 2026-04-22 18:20 | 36.15387 | -86.65092 | 960 ft | 117 kts | 204° |
| 2026-04-22 18:21 | 36.14613 | -86.65433 | 837 ft | 116 kts | 203° |
| 2026-04-22 18:21 | 36.13841 | -86.65749 | 734 ft | 119 kts | 199° |
| 2026-04-22 18:21 | 36.13050 | -86.66048 | 613 ft | 108 kts | 201° |
| 2026-04-22 18:21 | 36.12428 | -86.66303 | 607 ft | 71 kts | 197° |
| 2026-04-22 18:22 | 36.12202 | -86.66393 | 607 ft | 24 kts | 195° |
| 2026-04-22 18:22 | 36.12015 | -86.66468 | 607 ft | 31 kts | 198° |
| 2026-04-22 18:22 | 36.11847 | -86.66537 | 607 ft | 16 kts | 210° |
| 2026-04-22 18:22 | 36.11853 | -86.66637 | 607 ft | 11 kts | 295° |
| 2026-04-22 18:23 | 36.11937 | -86.66640 | 607 ft | 15 kts | 17° |
| 2026-04-22 18:23 | 36.12058 | -86.66592 | 607 ft | 20 kts | 19° |
| 2026-04-22 18:23 | 36.12207 | -86.66537 | 607 ft | 24 kts | 16° |
| 2026-04-22 18:24 | 36.12324 | -86.66712 | 607 ft | 18 kts | 286° |
| 2026-04-22 18:24 | 36.12378 | -86.66867 | 607 ft | 15 kts | 316° |
| 2026-04-22 18:24 | 36.12368 | -86.67046 | 607 ft | 16 kts | 223° |
| 2026-04-22 18:25 | 36.12276 | -86.67158 | 607 ft | 20 kts | 223° |
| 2026-04-22 18:25 | 36.12180 | -86.67252 | 607 ft | 11 kts | 182° |
| 2026-04-22 18:25 | 36.12118 | -86.67204 | 607 ft | 13 kts | 132° |
| 2026-04-22 18:26 | 36.12003 | -86.67158 | 607 ft | 4 kts | 314° |
| 2026-04-22 18:26 | 36.12009 | -86.67164 | 607 ft | 0 kts | 319° |